createdAt,value
2018-02-15T00:01:28.494Z,42.20
2018-02-15T00:03:31.186Z,42.40
2018-02-15T00:05:34.594Z,42.00
2018-02-15T00:07:38.066Z,42.40
2018-02-15T00:09:40.725Z,42.20
2018-02-15T00:11:43.421Z,41.70
2018-02-15T00:13:46.049Z,41.90
2018-02-15T00:15:48.687Z,41.70
2018-02-15T00:17:51.399Z,43.30
2018-02-15T00:19:54.769Z,41.90
2018-02-15T00:21:57.410Z,41.80
2018-02-15T00:24:00.813Z,42.20
2018-02-15T00:26:03.523Z,42.10
2018-02-15T00:28:06.974Z,43.40
2018-02-15T00:30:09.736Z,43.30
2018-02-15T00:32:13.101Z,41.50
2018-02-15T00:34:15.704Z,41.50
2018-02-15T00:36:18.341Z,40.80
2018-02-15T00:38:21.729Z,43.30
2018-02-15T00:40:24.355Z,43.20
2018-02-15T00:42:27.759Z,42.10
2018-02-15T00:44:31.210Z,41.50
2018-02-15T00:46:33.909Z,41.50
2018-02-15T00:48:36.541Z,42.80
2018-02-15T00:50:39.140Z,41.70
2018-02-15T00:52:41.771Z,42.00
2018-02-15T00:54:45.696Z,43.00
2018-02-15T00:56:49.101Z,42.00
2018-02-15T00:58:52.500Z,41.70
2018-02-15T01:00:55.096Z,41.70
2018-02-15T01:02:57.809Z,43.20
2018-02-15T01:05:01.201Z,42.40
2018-02-15T01:07:03.924Z,42.30
2018-02-15T01:09:07.324Z,42.00
2018-02-15T01:11:09.931Z,41.90
2018-02-15T01:13:13.300Z,41.50
2018-02-15T01:15:16.039Z,41.40
2018-02-15T01:17:19.563Z,43.00
2018-02-15T01:19:22.975Z,43.10
2018-02-15T01:21:26.385Z,42.60
2018-02-15T01:23:29.831Z,42.60
2018-02-15T01:25:32.499Z,42.50
2018-02-15T01:27:35.198Z,42.50
2018-02-15T01:29:38.665Z,42.50
2018-02-15T01:31:41.295Z,42.30
2018-02-15T01:33:43.914Z,43.30
2018-02-15T01:35:47.326Z,43.60
2018-02-15T01:37:50.727Z,44.00
2018-02-15T01:39:54.141Z,43.40
2018-02-15T01:41:57.496Z,42.20
2018-02-15T01:44:00.134Z,42.10
2018-02-15T01:46:02.765Z,42.50
2018-02-15T01:48:05.375Z,44.10
2018-02-15T01:50:08.050Z,43.80
2018-02-15T01:52:11.458Z,42.50
2018-02-15T01:54:14.872Z,42.80
2018-02-15T01:56:18.290Z,43.50
2018-02-15T01:58:22.004Z,43.60
2018-02-15T02:00:25.424Z,43.00
2018-02-15T02:02:28.816Z,43.10
2018-02-15T02:04:31.432Z,43.10
2018-02-15T02:06:35.512Z,44.70
2018-02-15T02:08:38.266Z,44.70
2018-02-15T02:10:40.902Z,42.80
2018-02-15T02:12:43.560Z,43.20
2018-02-15T02:14:46.929Z,43.10
2018-02-15T02:16:49.539Z,43.00
2018-02-15T02:18:52.265Z,43.70
2018-02-15T02:20:55.667Z,43.60
2018-02-15T02:22:58.374Z,43.40
2018-02-15T02:25:01.732Z,44.40
2018-02-15T02:27:04.367Z,44.20
2018-02-15T02:29:07.756Z,44.10
2018-02-15T02:31:10.397Z,44.10
2018-02-15T02:33:13.747Z,43.70
2018-02-15T02:35:16.501Z,43.60
2018-02-15T02:37:19.930Z,43.60
2018-02-15T02:39:22.562Z,43.60
2018-02-15T02:41:25.216Z,44.30
2018-02-15T02:43:28.649Z,43.20
2018-02-15T02:45:31.381Z,43.00
2018-02-15T02:47:34.121Z,43.50
2018-02-15T02:49:36.925Z,42.60
2018-02-15T02:51:40.320Z,43.10
2018-02-15T02:53:42.936Z,43.10
2018-02-15T02:55:45.597Z,42.70
2018-02-15T02:57:48.198Z,42.60
2018-02-15T02:59:50.806Z,41.80
2018-02-15T03:01:54.238Z,42.70
2018-02-15T03:03:57.645Z,43.10
2018-02-15T03:06:01.065Z,43.10
2018-02-15T03:08:04.480Z,42.00
2018-02-15T03:10:07.998Z,41.90
2018-02-15T03:12:11.531Z,41.80
2018-02-15T03:14:14.208Z,41.70
2018-02-15T03:16:17.622Z,42.30
2018-02-15T03:18:21.141Z,42.10
2018-02-15T03:20:24.501Z,42.40
2018-02-15T03:22:27.102Z,42.30
2018-02-15T03:24:29.741Z,42.30
2018-02-15T03:26:33.103Z,42.50
2018-02-15T03:28:35.756Z,42.50
2018-02-15T03:30:39.173Z,42.60
2018-02-15T03:32:41.803Z,42.60
2018-02-15T03:34:44.481Z,42.20
2018-02-15T03:36:48.078Z,43.30
2018-02-15T03:38:51.395Z,42.30
2018-02-15T03:40:54.804Z,42.00
2018-02-15T03:42:58.177Z,42.80
2018-02-15T03:45:00.817Z,42.80
2018-02-15T03:47:03.481Z,43.40
2018-02-15T03:49:06.091Z,42.20
2018-02-15T03:51:09.476Z,43.80
2018-02-15T03:53:12.881Z,41.80
2018-02-15T03:55:15.633Z,41.90
2018-02-15T03:57:19.038Z,41.30
2018-02-15T03:59:22.566Z,41.50
2018-02-15T04:01:26.081Z,41.40
2018-02-15T04:03:29.458Z,42.90
2018-02-15T04:05:32.048Z,43.00
2018-02-15T04:07:34.696Z,41.30
2018-02-15T04:09:37.379Z,41.10
2018-02-15T04:11:40.722Z,40.70
2018-02-15T04:13:43.346Z,40.80
2018-02-15T04:15:46.112Z,41.40
2018-02-15T04:17:48.693Z,41.20
2018-02-15T04:19:51.303Z,41.60
2018-02-15T04:21:53.926Z,41.40
2018-02-15T04:23:56.547Z,41.20
2018-02-15T04:25:59.173Z,41.00
2018-02-15T04:28:01.868Z,40.80
2018-02-15T04:30:05.322Z,41.40
2018-02-15T04:32:07.946Z,41.40
2018-02-15T04:34:10.678Z,41.10
2018-02-15T04:36:14.193Z,40.80
2018-02-15T04:38:17.589Z,41.60
2018-02-15T04:40:21.024Z,41.10
2018-02-15T04:42:24.437Z,41.50
2018-02-15T04:44:27.948Z,41.30
2018-02-15T04:46:31.321Z,41.30
2018-02-15T04:48:33.952Z,41.30
2018-02-15T04:50:37.354Z,40.90
2018-02-15T04:52:40.022Z,40.80
2018-02-15T04:54:42.678Z,40.80
2018-02-15T04:56:45.366Z,40.50
2018-02-15T04:58:48.751Z,40.90
2018-02-15T05:00:51.389Z,40.90
2018-02-15T05:02:53.994Z,41.50
2018-02-15T05:04:56.616Z,40.40
2018-02-15T05:06:59.221Z,40.50
2018-02-15T05:09:01.867Z,42.10
2018-02-15T05:11:05.279Z,40.60
2018-02-15T05:13:08.792Z,40.00
2018-02-15T05:15:12.152Z,39.70
2018-02-15T05:17:15.614Z,39.00
2018-02-15T05:19:19.138Z,38.70
2018-02-15T05:21:22.653Z,39.60
2018-02-15T05:23:26.038Z,40.20
2018-02-15T05:25:28.661Z,40.20
2018-02-15T05:27:32.077Z,38.90
2018-02-15T05:29:35.508Z,38.60
2018-02-15T05:31:38.112Z,38.60
2018-02-15T05:33:40.788Z,39.00
2018-02-15T05:35:44.403Z,39.00
2018-02-15T05:37:47.827Z,38.60
2018-02-15T05:39:51.199Z,38.50
2018-02-15T05:41:53.852Z,38.40
2018-02-15T05:43:56.452Z,39.90
2018-02-15T05:45:59.114Z,38.40
2018-02-15T05:48:01.813Z,38.70
2018-02-15T05:50:05.183Z,37.90
2018-02-15T05:52:07.906Z,37.80
2018-02-15T05:54:10.513Z,39.10
2018-02-15T05:56:13.140Z,39.20
2018-02-15T05:58:15.804Z,39.20
2018-02-15T06:00:19.217Z,39.00
2018-02-15T06:02:22.588Z,40.90
2018-02-15T06:04:25.342Z,40.20
2018-02-15T06:06:28.752Z,39.30
2018-02-15T06:08:32.135Z,39.90
2018-02-15T06:10:34.764Z,40.00
2018-02-15T06:12:38.283Z,39.20
2018-02-15T06:14:41.663Z,39.30
2018-02-15T06:16:44.287Z,39.30
2018-02-15T06:18:47.709Z,40.20
2018-02-15T06:20:51.118Z,39.30
2018-02-15T06:22:54.539Z,39.70
2018-02-15T06:24:57.989Z,40.00
2018-02-15T06:27:00.649Z,39.90
2018-02-15T06:29:04.037Z,39.40
2018-02-15T06:31:06.762Z,39.40
2018-02-15T06:33:10.173Z,40.50
2018-02-15T06:35:13.529Z,39.90
2018-02-15T06:37:16.279Z,39.90
2018-02-15T06:39:19.694Z,40.60
2018-02-15T06:41:23.214Z,40.90
2018-02-15T06:43:26.733Z,40.60
2018-02-15T06:45:30.242Z,40.20
2018-02-15T06:47:33.632Z,40.50
2018-02-15T06:49:36.254Z,40.40
2018-02-15T06:51:39.670Z,41.60
2018-02-15T06:53:43.139Z,40.00
2018-02-15T06:55:45.743Z,39.90
2018-02-15T06:57:48.390Z,39.70
2018-02-15T06:59:51.069Z,40.60
2018-02-15T07:01:54.465Z,39.80
2018-02-15T07:03:57.180Z,39.70
2018-02-15T07:06:00.620Z,39.60
2018-02-15T07:08:03.313Z,39.60
2018-02-15T07:10:05.956Z,39.40
2018-02-15T07:12:08.610Z,39.50
2018-02-15T07:14:11.235Z,39.30
2018-02-15T07:16:13.892Z,38.60
2018-02-15T07:18:16.579Z,39.60
2018-02-15T07:20:20.025Z,38.80
2018-02-15T07:22:22.659Z,38.70
2018-02-15T07:24:25.290Z,39.60
2018-02-15T07:26:28.709Z,39.10
2018-02-15T07:28:32.321Z,39.30
2018-02-15T07:30:35.736Z,38.80
2018-02-15T07:32:39.189Z,39.20
2018-02-15T07:34:41.865Z,39.10
2018-02-15T07:36:44.514Z,40.00
2018-02-15T07:38:47.239Z,38.70
2018-02-15T07:40:50.681Z,40.80
2018-02-15T07:42:53.461Z,40.60
2018-02-15T07:44:56.153Z,40.30
2018-02-15T07:46:59.573Z,39.20
2018-02-15T07:49:03.079Z,40.80
2018-02-15T07:51:05.734Z,40.80
2018-02-15T07:53:08.335Z,40.20
2018-02-15T07:55:10.969Z,40.80
2018-02-15T07:57:14.325Z,41.30
2018-02-15T07:59:16.984Z,41.30
2018-02-15T08:01:20.508Z,41.60
2018-02-15T08:03:23.868Z,42.20
2018-02-15T08:05:26.480Z,42.20
2018-02-15T08:07:29.104Z,42.90
2018-02-15T08:09:32.485Z,43.80
2018-02-15T08:11:35.116Z,43.70
2018-02-15T08:13:38.480Z,45.60
2018-02-15T08:15:41.221Z,45.40
2018-02-15T08:17:44.842Z,48.00
2018-02-15T08:19:47.395Z,48.00
2018-02-15T08:21:50.044Z,51.70
2018-02-15T08:23:53.390Z,57.50
2018-02-15T08:25:56.020Z,57.50
2018-02-15T08:27:58.667Z,61.00
2018-02-15T08:30:01.335Z,71.60
2018-02-15T08:32:04.709Z,79.50
2018-02-15T08:34:07.379Z,79.40
2018-02-15T08:36:10.000Z,87.20
2018-02-15T08:38:12.644Z,91.50
2018-02-15T08:40:16.060Z,95.40
2018-02-15T08:42:19.402Z,97.40
2018-02-15T08:44:22.023Z,97.30
2018-02-15T08:46:24.664Z,98.50
2018-02-15T08:48:27.359Z,99.60
2018-02-15T08:50:30.872Z,99.90
2018-02-15T08:52:34.385Z,99.90
2018-02-15T08:54:37.774Z,99.90
2018-02-15T08:56:40.397Z,99.90
2018-02-15T08:58:43.095Z,99.90
2018-02-15T09:00:46.466Z,99.90
2018-02-15T09:02:49.205Z,99.90
2018-02-15T09:04:52.610Z,99.90
2018-02-15T09:06:55.197Z,99.90
2018-02-15T09:08:57.811Z,99.90
2018-02-15T09:11:01.224Z,99.90
2018-02-15T09:13:04.610Z,99.90
2018-02-15T09:15:07.265Z,99.90
2018-02-15T09:17:09.882Z,99.90
2018-02-15T09:19:12.492Z,99.90
2018-02-15T09:21:15.140Z,99.90
2018-02-15T09:23:17.837Z,99.90
2018-02-15T09:25:20.467Z,99.90
2018-02-15T09:27:23.217Z,99.90
2018-02-15T09:29:26.737Z,99.90
2018-02-15T09:31:30.137Z,99.90
2018-02-15T09:33:33.522Z,99.90
2018-02-15T09:35:36.178Z,99.90
2018-02-15T09:37:38.930Z,99.90
2018-02-15T09:39:41.537Z,99.90
2018-02-15T09:41:44.166Z,99.90
2018-02-15T09:43:47.661Z,99.90
2018-02-15T09:45:51.040Z,99.90
2018-02-15T09:47:53.674Z,99.90
2018-02-15T09:49:57.047Z,99.90
2018-02-15T09:52:00.427Z,99.90
2018-02-15T09:54:03.076Z,99.90
2018-02-15T09:56:05.735Z,99.90
2018-02-15T09:58:08.338Z,99.90
2018-02-15T10:00:11.013Z,99.90
2018-02-15T10:02:13.616Z,99.90
2018-02-15T10:04:16.384Z,99.90
2018-02-15T10:06:19.806Z,99.90
2018-02-15T10:08:23.316Z,99.90
2018-02-15T10:10:26.726Z,99.90
2018-02-15T10:12:30.137Z,99.90
2018-02-15T10:14:32.822Z,99.90
2018-02-15T10:16:35.533Z,99.90
2018-02-15T10:18:38.238Z,99.90
2018-02-15T10:20:40.886Z,99.90
2018-02-15T10:22:43.494Z,99.90
2018-02-15T10:24:46.118Z,99.90
2018-02-15T10:26:49.552Z,99.90
2018-02-15T10:28:52.211Z,99.90
2018-02-15T10:30:54.936Z,99.90
2018-02-15T10:32:58.343Z,99.90
2018-02-15T10:35:01.768Z,99.90
2018-02-15T10:37:05.281Z,99.90
2018-02-15T10:39:08.667Z,99.90
2018-02-15T10:41:11.301Z,99.90
2018-02-15T10:43:13.986Z,99.90
2018-02-15T10:45:17.353Z,99.90
2018-02-15T10:49:28.973Z,99.90
2018-02-15T10:51:31.660Z,99.90
2018-02-15T10:53:34.271Z,99.90
2018-02-15T10:55:36.887Z,99.90
2018-02-15T10:57:39.595Z,99.90
2018-02-15T10:59:42.356Z,99.90
2018-02-15T11:01:45.004Z,99.90
2018-02-15T11:03:53.443Z,99.90
2018-02-15T11:05:59.942Z,99.90
2018-02-15T11:08:02.597Z,99.90
2018-02-15T11:10:05.326Z,99.90
2018-02-15T11:12:07.978Z,99.90
2018-02-15T11:14:10.598Z,99.90
2018-02-15T11:16:13.316Z,99.90
2018-02-15T11:18:16.713Z,99.90
2018-02-15T11:20:19.430Z,99.90
2018-02-15T11:22:22.947Z,99.90
2018-02-15T11:24:26.347Z,99.90
2018-02-15T11:26:29.052Z,99.90
2018-02-15T11:28:31.710Z,99.90
2018-02-15T11:30:34.331Z,99.90
2018-02-15T11:32:37.046Z,99.90
2018-02-15T11:34:39.647Z,99.90
2018-02-15T11:36:43.108Z,99.90
2018-02-15T11:38:45.858Z,99.90
2018-02-15T11:40:49.197Z,99.90
2018-02-15T11:42:51.869Z,99.90
2018-02-15T11:44:55.248Z,99.90
2018-02-15T11:46:57.988Z,99.90
2018-02-15T11:49:01.493Z,99.90
2018-02-15T11:51:05.118Z,99.90
2018-02-15T11:53:08.494Z,99.90
2018-02-15T11:55:11.134Z,99.90
2018-02-15T11:57:14.553Z,99.90
2018-02-15T11:59:17.184Z,99.90
2018-02-15T12:01:19.837Z,99.90
2018-02-15T12:03:22.632Z,99.90
2018-02-15T12:05:26.001Z,99.90
2018-02-15T12:07:28.741Z,99.90
2018-02-15T12:09:32.109Z,99.90
2018-02-15T12:11:34.700Z,99.90
2018-02-15T12:13:37.352Z,99.90
2018-02-15T12:15:40.875Z,99.90
2018-02-15T12:17:44.320Z,99.90
2018-02-15T12:19:46.931Z,99.90
2018-02-15T12:21:49.672Z,99.90
2018-02-15T12:23:53.088Z,99.90
2018-02-15T12:25:56.617Z,99.90
2018-02-15T12:27:59.263Z,99.90
2018-02-15T12:30:01.905Z,99.90
2018-02-15T12:32:05.322Z,99.90
2018-02-15T12:34:08.682Z,99.90
2018-02-15T12:36:11.356Z,99.90
2018-02-15T12:38:14.035Z,99.90
2018-02-15T12:40:16.718Z,99.90
2018-02-15T12:42:20.163Z,99.90
2018-02-15T12:44:22.814Z,99.90
2018-02-15T12:46:26.199Z,99.90
2018-02-15T12:48:28.937Z,99.90
2018-02-15T12:50:32.353Z,99.90
2018-02-15T12:52:35.869Z,99.90
2018-02-15T12:54:39.279Z,99.90
2018-02-15T12:56:42.742Z,99.90
2018-02-15T12:58:45.453Z,99.90
2018-02-15T13:00:48.910Z,99.90
2018-02-15T13:02:52.359Z,99.90
2018-02-15T13:04:55.023Z,99.90
2018-02-15T13:06:58.436Z,99.90
2018-02-15T13:09:01.128Z,99.90
2018-02-15T13:11:04.648Z,99.90
2018-02-15T13:13:19.119Z,99.90
2018-02-15T13:15:34.230Z,99.90
2018-02-15T13:17:37.000Z,99.90
2018-02-15T13:19:52.109Z,99.90
2018-02-15T13:21:54.771Z,99.90
2018-02-15T13:23:58.203Z,99.90
2018-02-15T13:26:00.989Z,99.90
2018-02-15T13:28:16.331Z,99.90
2018-02-15T13:30:18.973Z,99.90
2018-02-15T13:32:22.490Z,99.90
2018-02-15T13:34:25.880Z,99.90
2018-02-15T13:36:28.598Z,99.90
2018-02-15T13:38:32.050Z,99.90
2018-02-15T13:40:34.694Z,99.90
2018-02-15T13:42:37.411Z,99.90
2018-02-15T13:44:41.384Z,99.90
2018-02-15T13:46:44.030Z,99.90
2018-02-15T13:48:47.553Z,99.90
2018-02-15T13:50:51.068Z,99.90
2018-02-15T13:52:54.447Z,99.90
2018-02-15T13:54:57.126Z,99.90
2018-02-15T13:56:59.712Z,99.90
2018-02-15T13:59:02.369Z,99.90
2018-02-15T14:01:05.066Z,99.90
2018-02-15T14:03:08.483Z,99.90
2018-02-15T14:05:11.900Z,99.90
2018-02-15T14:07:15.414Z,99.90
2018-02-15T14:09:18.788Z,99.90
2018-02-15T14:11:21.458Z,99.90
2018-02-15T14:13:24.223Z,99.90
2018-02-15T14:15:28.194Z,99.90
2018-02-15T14:17:30.973Z,99.90
2018-02-15T14:19:33.603Z,99.90
2018-02-15T14:21:36.248Z,99.90
2018-02-15T14:23:39.675Z,99.90
2018-02-15T14:25:42.350Z,99.90
2018-02-15T14:27:45.804Z,99.90
2018-02-15T14:29:48.405Z,99.90
2018-02-15T14:31:51.081Z,99.90
2018-02-15T14:33:53.753Z,99.90
2018-02-15T14:35:56.459Z,99.90
2018-02-15T14:37:59.855Z,99.90
2018-02-15T14:40:02.571Z,99.90
2018-02-15T14:42:05.939Z,99.90
2018-02-15T14:44:08.676Z,99.90
2018-02-15T14:46:12.530Z,99.90
2018-02-15T14:48:15.166Z,99.90
2018-02-15T14:50:17.825Z,99.90
2018-02-15T14:52:20.494Z,99.90
2018-02-15T14:54:23.859Z,99.90
2018-02-15T14:56:26.541Z,99.90
2018-02-15T14:58:29.201Z,99.90
2018-02-15T15:00:32.650Z,99.90
2018-02-15T15:02:35.309Z,99.90
2018-02-15T15:04:38.712Z,99.90
2018-02-15T15:06:41.390Z,99.90
2018-02-15T15:08:44.069Z,99.90
2018-02-15T15:10:46.684Z,99.90
2018-02-15T15:12:49.377Z,99.90
2018-02-15T15:14:52.040Z,99.90
2018-02-15T15:16:54.706Z,99.90
2018-02-15T15:18:58.083Z,99.90
2018-02-15T15:21:00.690Z,99.90
2018-02-15T15:23:03.426Z,99.90
2018-02-15T15:25:06.934Z,99.90
2018-02-15T15:27:10.346Z,99.90
2018-02-15T15:29:14.556Z,99.90
2018-02-15T15:31:18.535Z,99.90
2018-02-15T15:33:21.207Z,99.90
2018-02-15T15:35:24.622Z,99.90
2018-02-15T15:37:27.462Z,99.90
2018-02-15T15:39:30.065Z,99.90
2018-02-15T15:41:32.752Z,99.90
2018-02-15T15:43:35.403Z,99.90
2018-02-15T15:45:38.903Z,99.90
2018-02-15T15:47:41.587Z,99.90
2018-02-15T15:49:44.317Z,99.90
2018-02-15T15:51:47.742Z,99.90
2018-02-15T15:53:50.487Z,99.90
2018-02-15T15:55:53.887Z,99.90
2018-02-15T15:57:56.557Z,99.90
2018-02-15T16:00:00.115Z,99.90
2018-02-15T16:02:02.737Z,99.90
2018-02-15T16:04:05.472Z,99.90
2018-02-15T16:06:08.166Z,99.90
2018-02-15T16:08:11.667Z,99.90
2018-02-15T16:10:16.850Z,99.90
2018-02-15T16:12:19.722Z,99.90
2018-02-15T16:14:23.396Z,99.90
2018-02-15T16:16:26.026Z,99.90
2018-02-15T16:18:28.718Z,99.90
2018-02-15T16:20:31.351Z,99.90
2018-02-15T16:22:34.303Z,99.90
2018-02-15T16:24:37.042Z,99.90
2018-02-15T16:26:40.562Z,99.90
2018-02-15T16:28:44.070Z,99.90
2018-02-15T16:30:47.465Z,99.90
2018-02-15T16:32:50.182Z,99.90
2018-02-15T16:34:53.612Z,99.90
2018-02-15T16:36:56.397Z,99.90
2018-02-15T16:38:59.906Z,99.90
2018-02-15T16:41:02.612Z,99.90
2018-02-15T16:43:06.053Z,99.90
2018-02-15T16:45:08.758Z,99.90
2018-02-15T16:47:11.416Z,99.90
2018-02-15T16:49:14.815Z,99.90
2018-02-15T16:51:17.476Z,99.90
2018-02-15T16:53:20.238Z,99.90
2018-02-15T16:55:22.849Z,99.90
2018-02-15T16:57:25.517Z,99.90
2018-02-15T16:59:28.942Z,99.90
2018-02-15T17:01:32.351Z,99.90
2018-02-15T17:03:35.868Z,99.90
2018-02-15T17:05:39.282Z,99.90
2018-02-15T17:07:42.734Z,99.90
2018-02-15T17:09:45.351Z,99.90
2018-02-15T17:11:47.975Z,99.90
2018-02-15T17:13:50.791Z,99.90
2018-02-15T17:15:54.194Z,99.90
2018-02-15T17:17:56.852Z,99.90
2018-02-15T17:19:59.523Z,99.90
2018-02-15T17:22:02.198Z,99.90
2018-02-15T17:24:05.708Z,99.90
2018-02-15T17:26:08.422Z,99.90
2018-02-15T17:28:11.926Z,99.90
2018-02-15T17:30:15.366Z,99.90
2018-02-15T17:32:18.020Z,99.90
2018-02-15T17:34:20.635Z,99.90
2018-02-15T17:36:24.067Z,99.90
2018-02-15T17:38:26.721Z,99.90
2018-02-15T17:40:29.540Z,99.90
2018-02-15T17:42:32.393Z,99.90
2018-02-15T17:44:35.054Z,99.90
2018-02-15T17:46:38.452Z,99.90
2018-02-15T17:48:41.903Z,99.90
2018-02-15T17:50:44.536Z,99.90
2018-02-15T17:52:47.209Z,99.90
2018-02-15T17:54:49.871Z,99.90
2018-02-15T17:56:52.558Z,99.90
2018-02-15T17:58:57.279Z,99.90
2018-02-15T18:00:59.934Z,99.90
2018-02-15T18:03:02.579Z,99.90
2018-02-15T18:05:05.353Z,99.90
2018-02-15T18:07:08.008Z,99.90
2018-02-15T18:09:10.661Z,99.90
2018-02-15T18:11:13.288Z,99.90
2018-02-15T18:13:16.713Z,99.90
2018-02-15T18:15:19.353Z,99.90
2018-02-15T18:17:22.102Z,99.90
2018-02-15T18:19:25.617Z,99.90
2018-02-15T18:21:29.124Z,99.90
2018-02-15T18:23:31.789Z,99.90
2018-02-15T18:25:34.434Z,99.90
2018-02-15T18:27:37.118Z,99.90
2018-02-15T18:29:41.772Z,99.90
2018-02-15T18:31:44.451Z,99.90
2018-02-15T18:33:47.867Z,99.90
2018-02-15T18:35:51.386Z,99.90
2018-02-15T18:37:54.793Z,99.90
2018-02-15T18:39:57.454Z,99.90
2018-02-15T18:42:00.173Z,99.90
2018-02-15T18:44:02.897Z,99.90
2018-02-15T18:46:06.316Z,99.90
2018-02-15T18:48:08.982Z,99.90
2018-02-15T18:50:11.808Z,99.90
2018-02-15T18:52:15.242Z,99.90
2018-02-15T18:54:17.872Z,99.90
2018-02-15T18:56:20.533Z,99.90
2018-02-15T18:58:23.189Z,99.90
2018-02-15T19:00:25.814Z,99.90
2018-02-15T19:02:29.218Z,99.90
2018-02-15T19:04:32.635Z,99.90
2018-02-15T19:06:36.043Z,99.90
2018-02-15T19:08:39.573Z,99.90
2018-02-15T19:10:43.020Z,99.90
2018-02-15T19:12:45.673Z,99.90
2018-02-15T19:14:49.157Z,99.90
2018-02-15T19:16:51.923Z,99.90
2018-02-15T19:18:54.592Z,99.90
2018-02-15T19:20:57.977Z,99.90
2018-02-15T19:23:00.699Z,99.90
2018-02-15T19:25:04.161Z,99.90
2018-02-15T19:27:06.788Z,99.90
2018-02-15T19:29:09.506Z,99.90
2018-02-15T19:31:12.952Z,99.90
2018-02-15T19:33:15.618Z,99.90
2018-02-15T19:35:19.012Z,99.90
2018-02-15T19:37:21.743Z,99.90
2018-02-15T19:39:25.204Z,99.90
2018-02-15T19:41:27.958Z,99.90
2018-02-15T19:43:30.652Z,99.90
2018-02-15T19:45:34.111Z,99.90
2018-02-15T19:47:36.738Z,99.90
2018-02-15T19:49:39.456Z,99.90
2018-02-15T19:51:42.086Z,99.90
2018-02-15T19:53:44.730Z,99.90
2018-02-15T19:55:47.394Z,99.90
2018-02-15T19:57:50.040Z,99.90
2018-02-15T19:59:53.433Z,99.90
2018-02-15T20:01:57.187Z,99.90
2018-02-15T20:03:59.883Z,99.90
2018-02-15T20:06:03.330Z,99.90
2018-02-15T20:08:06.092Z,99.90
2018-02-15T20:10:09.610Z,99.90
2018-02-15T20:12:13.059Z,99.90
2018-02-15T20:14:15.769Z,99.90
2018-02-15T20:16:18.520Z,99.90
2018-02-15T20:18:22.037Z,99.90
2018-02-15T20:20:25.488Z,99.90
2018-02-15T20:22:28.149Z,99.90
2018-02-15T20:24:31.674Z,99.90
2018-02-15T20:26:40.100Z,99.90
2018-02-15T20:28:43.601Z,99.90
2018-02-15T20:30:47.159Z,99.90
2018-02-15T20:32:49.819Z,99.90
2018-02-15T20:34:53.264Z,99.90
2018-02-15T20:36:55.959Z,99.90
2018-02-15T20:39:04.257Z,99.90
2018-02-15T20:41:07.735Z,99.90
2018-02-15T20:43:10.470Z,99.90
2018-02-15T20:45:13.914Z,99.90
2018-02-15T20:47:16.574Z,99.90
2018-02-15T20:49:25.640Z,99.90
2018-02-15T20:51:34.688Z,99.90
2018-02-15T20:53:42.847Z,99.90
2018-02-15T20:55:46.230Z,99.90
2018-02-15T20:57:48.866Z,99.90
2018-02-15T20:59:51.604Z,99.90
2018-02-15T21:01:54.247Z,99.90
2018-02-15T21:03:56.892Z,99.90
2018-02-15T21:06:00.310Z,99.90
2018-02-15T21:08:03.825Z,99.90
2018-02-15T21:10:07.221Z,99.90
2018-02-15T21:12:09.877Z,99.90
2018-02-15T21:14:12.516Z,99.90
2018-02-15T21:16:15.152Z,99.90
2018-02-15T21:18:17.821Z,99.90
2018-02-15T21:20:21.230Z,99.90
2018-02-15T21:22:24.758Z,99.90
2018-02-15T21:24:28.386Z,99.90
2018-02-15T21:26:31.206Z,99.90
2018-02-15T21:28:34.069Z,99.90
2018-02-15T21:30:37.591Z,99.90
2018-02-15T21:32:41.070Z,99.90
2018-02-15T21:34:43.935Z,99.90
2018-02-15T21:36:46.711Z,99.90
2018-02-15T21:38:50.242Z,99.90
2018-02-15T21:40:52.952Z,99.90
2018-02-15T21:42:55.723Z,99.90
2018-02-15T21:44:59.234Z,99.90
2018-02-15T21:47:02.705Z,99.90
2018-02-15T21:49:05.470Z,99.90
2018-02-15T21:51:08.870Z,99.90
2018-02-15T21:53:12.346Z,99.90
2018-02-15T21:55:15.082Z,99.90
2018-02-15T21:57:18.472Z,99.90
2018-02-15T21:59:22.429Z,99.90
2018-02-15T22:01:25.832Z,99.90
2018-02-15T22:03:29.257Z,99.90
2018-02-15T22:05:32.760Z,99.90
2018-02-15T22:07:36.387Z,99.90
2018-02-15T22:09:39.905Z,99.90
2018-02-15T22:11:43.431Z,99.90
2018-02-15T22:13:46.120Z,99.90
2018-02-15T22:15:49.510Z,99.90
2018-02-15T22:17:52.373Z,99.90
2018-02-15T22:19:55.026Z,99.90
2018-02-15T22:21:58.546Z,99.90
2018-02-15T22:24:01.941Z,99.90
2018-02-15T22:26:04.681Z,99.90
2018-02-15T22:28:07.380Z,99.90
2018-02-15T22:30:10.003Z,99.90
2018-02-15T22:32:12.629Z,99.90
2018-02-15T22:34:15.485Z,99.90
2018-02-15T22:36:18.122Z,99.90
2018-02-15T22:38:20.737Z,99.90
2018-02-15T22:40:24.256Z,99.90
2018-02-15T22:42:27.812Z,99.90
2018-02-15T22:44:31.237Z,99.90
2018-02-15T22:46:33.986Z,99.90
2018-02-15T22:48:37.400Z,99.90
2018-02-15T22:50:40.811Z,99.90
2018-02-15T22:52:44.235Z,99.90
2018-02-15T22:54:47.636Z,99.90
2018-02-15T22:56:50.230Z,99.90
2018-02-15T22:58:52.870Z,99.90
2018-02-15T23:00:55.569Z,99.90
2018-02-15T23:02:58.193Z,99.90
2018-02-15T23:05:00.856Z,99.90
2018-02-15T23:07:03.485Z,99.90
2018-02-15T23:09:06.169Z,99.90
2018-02-15T23:11:08.912Z,99.90
2018-02-15T23:13:12.336Z,99.90
2018-02-15T23:15:15.852Z,99.90
2018-02-15T23:17:19.243Z,99.90
2018-02-15T23:19:21.896Z,99.90
2018-02-15T23:21:24.563Z,99.90
2018-02-15T23:23:27.965Z,99.90
2018-02-15T23:25:31.378Z,99.90
2018-02-15T23:27:34.068Z,99.90
2018-02-15T23:29:36.700Z,99.90
2018-02-15T23:31:39.362Z,99.90
2018-02-15T23:33:41.981Z,99.90
2018-02-15T23:35:44.621Z,99.90
2018-02-15T23:37:47.267Z,99.90
2018-02-15T23:39:50.739Z,99.90
2018-02-15T23:41:53.346Z,99.90
2018-02-15T23:43:55.942Z,99.90
2018-02-15T23:45:59.485Z,99.90
2018-02-15T23:48:02.870Z,99.90
2018-02-15T23:50:05.478Z,99.90
2018-02-15T23:52:08.121Z,99.90
2018-02-15T23:54:10.751Z,99.90
2018-02-15T23:56:14.222Z,99.90
2018-02-15T23:58:16.906Z,99.90
